Time;durP1;ratioP1;P1;durP2;ratioP2;P2;SDS_P1;SDS_P2;PMS_P1;PMS_P2;Temp;Humidity;BMP_temperature;BMP_pressure;BME280_temperature;BME280_humidity;BME280_pressure;Samples;Min_cycle;Max_cycle;Signal;HPM_P1;HPM_P2
2022/07/28 00:01:29;;;;;;;3.95;2.35;;;21.30;49.00;;;17.52;62.17;95291.81;4936225;29;20081;-49
2022/07/28 00:04:00;;;;;;;3.38;2.70;;;21.30;48.90;;;17.52;62.25;95297.22;4919106;29;20027;-50
2022/07/28 00:06:38;;;;;;;6.68;2.70;;;21.20;49.00;;;17.51;62.23;95299.09;4935885;29;20042;-49
2022/07/28 00:09:10;;;;;;;4.45;2.67;;;21.20;49.00;;;17.50;61.94;95294.81;4934449;29;20027;-48
2022/07/28 00:11:35;;;;;;;6.97;2.80;;;21.20;49.10;;;17.52;62.04;95289.91;4935940;29;20027;-48
2022/07/28 00:14:05;;;;;;;4.38;3.20;;;21.20;49.00;;;17.47;62.11;95283.88;4919190;29;20023;-46
2022/07/28 00:16:34;;;;;;;5.68;3.00;;;21.20;49.20;;;17.45;62.38;95281.50;4935609;29;20027;-47
2022/07/28 00:19:03;;;;;;;3.58;2.78;;;21.10;49.20;;;17.46;62.26;95285.00;4918655;29;20022;-50
2022/07/28 00:21:29;;;;;;;4.38;2.88;;;21.10;49.30;;;17.45;62.07;95286.09;4918539;29;20042;-47
2022/07/28 00:23:57;;;;;;;3.25;2.75;;;21.10;49.20;;;17.43;62.04;95285.63;4935710;29;20027;-49
2022/07/28 00:26:29;;;;;;;4.80;2.50;;;21.10;49.30;;;17.41;62.10;95283.25;4933965;29;20030;-52
2022/07/28 00:28:58;;;;;;;4.43;2.63;;;21.10;49.20;;;17.38;62.23;95283.06;4935536;29;20031;-51
2022/07/28 00:31:39;;;;;;;5.43;2.70;;;21.00;49.30;;;17.35;62.07;95290.66;4918210;29;20051;-47
2022/07/28 00:34:05;;;;;;;4.38;2.78;;;21.00;49.40;;;17.37;62.13;95286.88;4918718;29;20035;-47
2022/07/28 00:36:31;;;;;;;4.20;2.50;;;21.00;49.30;;;17.33;62.22;95284.81;4934114;29;20485;-49
2022/07/28 00:39:04;;;;;;;3.70;3.00;;;21.00;49.30;;;17.31;62.32;95291.63;4918409;29;20023;-47
2022/07/28 00:41:30;;;;;;;3.78;2.60;;;21.00;49.50;;;17.28;62.72;95289.56;4935615;29;20109;-49
2022/07/28 00:43:56;;;;;;;5.05;2.58;;;20.90;49.40;;;17.23;62.80;95274.34;4934088;29;20121;-49
2022/07/28 00:46:23;;;;;;;7.35;2.70;;;20.90;49.50;;;17.21;62.59;95284.63;4933425;29;20090;-49
2022/07/28 00:48:53;;;;;;;4.15;2.78;;;20.90;49.50;;;17.16;62.92;95275.91;4917980;29;20113;-49
2022/07/28 00:51:24;;;;;;;7.82;3.15;;;20.90;49.60;;;17.11;63.23;95280.34;4935270;29;20023;-50
2022/07/28 00:53:54;;;;;;;4.45;2.83;;;20.80;49.60;;;17.07;63.39;95275.88;4918146;29;20031;-48
2022/07/28 00:56:32;;;;;;;8.32;2.58;;;20.80;49.80;;;17.02;63.34;95278.75;4934660;29;20039;-51
2022/07/28 00:58:58;;;;;;;3.92;2.30;;;20.70;49.90;;;16.97;63.31;95279.66;4920929;29;20038;-49
2022/07/28 01:01:27;;;;;;;5.53;2.80;;;20.70;49.80;;;16.92;63.71;95270.94;4933801;29;20106;-50
2022/07/28 01:04:00;;;;;;;3.03;2.38;;;20.70;49.90;;;16.90;63.85;95275.84;4918057;29;20029;-51
2022/07/28 01:06:51;;;;;;;3.03;2.20;;;20.60;50.00;;;16.82;63.92;95277.41;4917860;29;20042;-49
2022/07/28 01:09:47;;;;;;;2.97;2.40;;;20.60;50.00;;;16.72;64.78;95272.28;4933394;29;20027;-52
2022/07/28 01:13:21;;;;;;;4.30;2.67;;;20.50;50.20;;;16.60;64.73;95270.94;4934963;29;20406;-48
2022/07/28 01:16:01;;;;;;;5.75;3.25;;;20.40;50.30;;;16.46;65.42;95278.34;4934503;29;20038;-48
2022/07/28 01:18:56;;;;;;;3.78;2.85;;;20.30;50.40;;;16.33;65.61;95276.53;4917234;29;20125;-48
2022/07/28 01:21:33;;;;;;;5.93;3.00;;;20.20;50.60;;;16.18;65.77;95273.13;4892101;29;20039;-49
2022/07/28 01:24:23;;;;;;;6.25;2.90;;;20.10;50.70;;;16.04;66.15;95276.97;4901861;29;20023;-50
2022/07/28 01:27:17;;;;;;;3.25;2.95;;;20.00;51.00;;;15.90;66.98;95269.00;4917528;29;20031;-49
2022/07/28 01:30:15;;;;;;;6.68;2.80;;;19.90;51.00;;;15.75;67.63;95275.50;4932854;29;20061;-48
2022/07/28 01:33:08;;;;;;;4.93;2.83;;;19.70;51.30;;;15.62;68.39;95279.00;4933366;29;20426;-49
2022/07/28 01:35:50;;;;;;;8.07;3.17;;;19.60;51.50;;;15.45;68.82;95277.00;4917427;29;20023;-47
2022/07/28 01:38:21;;;;;;;10.20;3.58;;;19.50;51.70;;;15.35;69.94;95280.66;4918027;29;20027;-48
2022/07/28 01:41:01;;;;;;;3.67;3.00;;;19.40;52.00;;;15.26;70.30;95275.25;4932753;29;20019;-47
2022/07/28 01:43:35;;;;;;;5.72;3.20;;;19.30;52.30;;;15.19;70.16;95271.34;4933071;29;20512;-47
2022/07/28 01:46:04;;;;;;;3.72;3.15;;;19.20;52.50;;;15.04;71.40;95270.59;4917781;29;20508;-46
2022/07/28 01:48:38;;;;;;;5.18;3.22;;;19.10;52.60;;;14.90;72.70;95271.69;4916978;29;20031;-47
2022/07/28 01:51:12;;;;;;;3.50;3.00;;;19.00;52.90;;;14.81;73.36;95280.44;4917539;29;20110;-46
2022/07/28 01:53:41;;;;;;;4.90;3.42;;;18.90;53.00;;;14.75;73.67;95275.47;4933075;29;20050;-48
2022/07/28 01:56:10;;;;;;;6.15;3.47;;;18.80;53.20;;;14.71;74.12;95287.88;4913154;29;20139;-46
2022/07/28 01:58:41;;;;;;;8.73;3.42;;;18.70;53.40;;;14.65;74.28;95275.66;4913415;29;20066;-50
2022/07/28 02:01:12;;;;;;;9.57;3.40;;;18.70;53.70;;;14.55;74.52;95277.44;4914906;29;20031;-49
2022/07/28 02:03:42;;;;;;;4.55;3.45;;;18.60;54.00;;;14.47;74.73;95280.00;4914034;29;20023;-52
2022/07/28 02:06:18;;;;;;;8.48;3.88;;;18.50;54.10;;;14.27;75.96;95283.84;4914123;29;20427;-49
2022/07/28 02:08:47;;;;;;;4.57;3.50;;;18.40;54.40;;;14.17;76.10;95276.78;4913524;29;20046;-48
2022/07/28 02:14:21;;;;;;;6.38;3.45;;;18.20;54.70;;;13.99;77.17;95280.28;4915094;29;20034;-52
2022/07/28 02:17:13;;;;;;;7.18;3.53;;;18.10;54.90;;;13.97;77.26;95285.13;4927525;29;20024;-47
2022/07/28 02:19:47;;;;;;;6.22;3.88;;;18.00;55.30;;;13.89;77.12;95274.00;4913240;29;20035;-49
2022/07/28 02:22:16;;;;;;;7.68;3.70;;;17.90;55.20;;;13.79;77.71;95273.41;4913393;29;20039;-46
2022/07/28 02:24:46;;;;;;;7.30;4.50;;;17.90;55.70;;;13.77;77.53;95271.00;4913425;29;20383;-51
2022/07/28 02:27:38;;;;;;;4.18;3.40;;;17.80;55.60;;;13.69;78.17;95270.84;4913262;29;20517;-49
2022/07/28 02:30:18;;;;;;;5.13;3.50;;;17.70;55.90;;;13.65;78.86;95273.31;4912763;29;20027;-49
2022/07/28 02:32:55;;;;;;;6.97;3.80;;;17.70;56.00;;;13.62;78.82;95271.22;4914509;29;20941;-47
2022/07/28 02:35:50;;;;;;;8.68;3.50;;;17.60;55.90;;;13.61;78.88;95267.75;4928790;29;20422;-52
2022/07/28 02:38:38;;;;;;;5.40;3.83;;;17.60;56.30;;;13.56;79.35;95259.00;4913211;29;20030;-48
2022/07/28 02:41:32;;;;;;;5.32;3.88;;;17.50;56.40;;;13.47;79.94;95258.06;4914201;29;20031;-47
2022/07/28 02:44:10;;;;;;;6.95;4.32;;;17.50;56.60;;;13.37;80.29;95253.66;4913142;29;20038;-52
2022/07/28 02:46:53;;;;;;;4.32;3.92;;;17.40;56.60;;;13.25;80.92;95258.66;4913073;29;20031;-48
2022/07/28 02:49:29;;;;;;;;;;;17.40;56.80;;;13.15;81.68;95257.69;4913170;29;20035;-48
2022/07/28 02:52:08;;;;;;;6.32;3.60;;;17.20;56.00;;;13.12;81.71;95257.47;4914274;29;19977;-47
2022/07/28 02:54:38;;;;;;;4.68;3.90;;;17.20;56.70;;;13.14;81.61;95261.44;4927946;29;20023;-44
2022/07/28 02:57:08;;;;;;;9.30;4.15;;;17.20;56.90;;;13.18;81.66;95258.97;4926232;29;20047;-45
2022/07/28 02:59:40;;;;;;;6.43;3.90;;;17.10;57.10;;;13.25;81.20;95266.69;4897327;29;20627;-47
2022/07/28 03:02:09;;;;;;;6.38;4.05;;;17.10;57.50;;;13.31;81.02;95269.00;4912887;29;20042;-47
2022/07/28 03:07:35;;;;;;;9.07;4.20;;;17.20;57.50;;;13.33;80.90;95271.38;4912947;29;20039;-49
2022/07/28 03:10:03;;;;;;;6.35;4.38;;;17.20;57.80;;;13.30;81.01;95271.97;4912826;29;20118;-49
2022/07/28 03:12:29;;;;;;;7.47;4.38;;;17.20;57.70;;;13.21;81.15;95279.81;4914140;29;20027;-49
2022/07/28 03:14:55;;;;;;;7.13;4.75;;;17.20;57.70;;;13.19;81.22;95277.44;4913688;29;20339;-50
2022/07/28 03:17:21;;;;;;;6.22;4.50;;;17.20;57.90;;;13.19;81.27;95274.75;4914004;29;20122;-52
2022/07/28 03:19:50;;;;;;;8.00;4.68;;;17.10;57.90;;;13.18;80.96;95275.81;4913547;29;20538;-48
2022/07/28 03:22:16;;;;;;;8.93;5.38;;;17.10;58.00;;;13.18;80.65;95278.50;4912652;29;20494;-46
2022/07/28 03:24:55;;;;;;;7.32;4.60;;;17.10;58.00;;;13.16;81.31;95280.69;4896381;29;20115;-48
2022/07/28 03:27:33;;;;;;;6.43;4.25;;;17.10;58.30;;;13.09;81.86;95282.91;4897195;29;20107;-49
2022/07/28 03:30:15;;;;;;;7.50;4.63;;;17.10;58.30;;;13.08;81.90;95283.97;4916138;29;20024;-50
2022/07/28 03:32:53;;;;;;;7.93;4.95;;;17.10;58.40;;;13.11;81.76;95285.28;4916365;29;20114;-50
2022/07/28 03:35:20;;;;;;;6.22;4.57;;;17.00;58.40;;;13.15;81.20;95283.63;4932130;29;20122;-53
2022/07/28 03:38:19;;;;;;;9.52;4.78;;;17.10;58.40;;;13.19;80.87;95289.97;4916468;29;20031;-49
2022/07/28 03:40:53;;;;;;;8.35;4.70;;;17.10;58.60;;;13.18;81.23;95293.75;4917539;29;20474;-47
2022/07/28 03:43:25;;;;;;;7.28;5.03;;;17.00;58.60;;;13.13;80.64;95288.47;4916405;29;20028;-49
2022/07/28 03:46:00;;;;;;;10.82;4.93;;;17.00;58.50;;;13.05;81.64;95292.59;4916000;29;20115;-46
2022/07/28 03:48:33;;;;;;;7.72;4.45;;;17.00;59.00;;;13.05;81.71;95292.59;4930609;29;20024;-47
2022/07/28 03:51:05;;;;;;;6.53;3.92;;;17.00;58.60;;;13.03;81.83;95297.41;4917457;29;20027;-49
2022/07/28 03:53:31;;;;;;;5.88;4.75;;;17.00;58.70;;;13.04;81.91;95300.91;4917324;29;20046;-50
2022/07/28 03:56:06;;;;;;;7.13;4.53;;;17.00;59.10;;;13.07;81.61;95297.66;4925602;29;20394;-48
2022/07/28 03:58:35;;;;;;;7.45;4.95;;;17.00;58.80;;;13.14;81.11;95301.56;4925316;29;20031;-50
2022/07/28 04:01:04;;;;;;;6.35;4.28;;;17.00;58.80;;;13.17;81.35;95297.53;4936112;29;20054;-48
2022/07/28 04:03:33;;;;;;;9.68;4.55;;;17.00;58.70;;;13.19;80.97;95298.00;4934748;29;20114;-51
2022/07/28 04:05:59;;;;;;;11.00;4.45;;;17.10;58.80;;;13.19;80.74;95304.19;4918770;29;20023;-52
2022/07/28 04:08:28;;;;;;;6.75;4.57;;;17.10;58.70;;;13.23;80.59;95303.59;4917976;29;20417;-48
2022/07/28 04:11:03;;;;;;;7.78;4.38;;;17.10;58.70;;;13.22;80.55;95310.00;4935613;29;20429;-48
2022/07/28 04:13:30;;;;;;;11.40;4.30;;;17.10;58.80;;;13.25;80.28;95312.16;4935873;29;20035;-51
2022/07/28 04:15:57;;;;;;;7.00;4.72;;;17.10;58.70;;;13.33;79.95;95314.19;4935700;29;20039;-50
2022/07/28 04:18:28;;;;;;;7.07;4.88;;;17.20;58.70;;;13.37;79.67;95307.97;4918165;29;20027;-51
2022/07/28 04:21:04;;;;;;;13.93;5.18;;;17.20;58.70;;;13.39;80.11;95310.38;4934407;29;20129;-48
2022/07/28 04:23:35;;;;;;;5.18;4.43;;;17.30;58.80;;;13.35;80.05;95307.47;4918480;29;20074;-46
2022/07/28 04:26:04;;;;;;;9.45;4.53;;;17.30;58.70;;;13.32;80.09;95310.72;4918190;29;20109;-49
2022/07/28 04:28:30;;;;;;;9.68;5.10;;;17.20;58.60;;;13.33;79.98;95308.84;4935669;29;20023;-49
2022/07/28 04:30:56;;;;;;;7.00;4.93;;;17.30;58.60;;;13.31;79.82;95314.47;4934237;29;20031;-46
2022/07/28 04:33:24;;;;;;;10.02;5.13;;;17.30;58.60;;;13.29;79.98;95310.50;4935327;29;20478;-52
2022/07/28 04:35:53;;;;;;;6.85;4.53;;;17.30;58.60;;;13.25;80.66;95310.25;4933817;29;20034;-47
2022/07/28 04:38:30;;;;;;;7.55;5.05;;;17.30;58.70;;;13.29;80.67;95319.31;4933539;29;20398;-52
2022/07/28 04:40:59;;;;;;;8.85;4.65;;;17.30;58.70;;;13.31;80.59;95325.16;4934072;29;20081;-50
2022/07/28 04:43:32;;;;;;;7.95;5.20;;;17.30;58.60;;;13.33;80.60;95320.34;4933951;29;20042;-51
2022/07/28 04:46:00;;;;;;;9.68;5.07;;;17.40;58.80;;;13.47;81.00;95323.06;4934901;29;20077;-50
2022/07/28 04:48:37;;;;;;;8.52;5.20;;;17.40;58.70;;;13.76;80.35;95314.13;4934572;29;20146;-49
2022/07/28 04:51:03;;;;;;;7.90;4.47;;;17.50;58.80;;;14.08;79.34;95318.72;4935218;29;20482;-47
2022/07/28 04:53:29;;;;;;;8.20;4.75;;;17.70;58.60;;;14.39;78.23;95323.56;4935494;29;20363;-48
2022/07/28 04:55:57;;;;;;;7.65;4.43;;;17.90;58.50;;;14.69;76.30;95327.59;4914003;29;20078;-47
2022/07/28 04:58:26;;;;;;;8.00;4.85;;;18.10;58.40;;;14.97;75.51;95333.78;4925371;29;20069;-51
2022/07/28 05:01:03;;;;;;;8.15;4.25;;;18.30;58.30;;;15.22;73.81;95329.78;4934988;29;20043;-50
2022/07/28 05:03:29;;;;;;;7.82;4.18;;;18.50;58.00;;;15.46;73.20;95321.50;4918361;29;20046;-54
2022/07/28 05:05:58;;;;;;;6.63;4.10;;;18.70;57.70;;;15.63;71.94;95323.53;4917662;29;20061;-48
2022/07/28 05:08:27;;;;;;;6.57;4.18;;;18.90;57.40;;;15.80;70.63;95326.44;4934350;29;20492;-48
2022/07/28 05:10:56;;;;;;;7.97;3.92;;;19.20;57.20;;;16.04;69.61;95326.13;4934405;29;20034;-52
2022/07/28 05:13:28;;;;;;;5.10;3.60;;;19.40;56.80;;;16.31;68.14;95319.03;4934756;29;20023;-48
2022/07/28 05:15:57;;;;;;;9.50;3.97;;;19.70;56.40;;;16.52;67.26;95322.81;4917593;29;20066;-48
2022/07/28 05:18:35;;;;;;;6.05;3.90;;;19.80;55.90;;;16.72;66.21;95318.00;4932209;29;20053;-51
2022/07/28 05:21:03;;;;;;;6.45;3.95;;;20.10;55.50;;;16.91;65.98;95317.78;4934000;29;20066;-51
2022/07/28 05:23:29;;;;;;;7.20;3.97;;;20.30;55.10;;;17.07;64.86;95317.03;4932553;29;20030;-51
2022/07/28 05:25:55;;;;;;;7.20;3.63;;;20.60;54.70;;;17.28;64.08;95313.78;4916896;29;20039;-50
2022/07/28 05:28:36;;;;;;;5.95;3.55;;;20.80;54.20;;;17.44;63.44;95306.06;4932606;29;20053;-52
2022/07/28 05:31:04;;;;;;;9.60;3.95;;;21.00;53.90;;;17.64;62.98;95312.72;4917477;29;20070;-54
2022/07/28 05:33:34;;;;;;;5.97;3.63;;;21.20;53.40;;;17.85;61.85;95310.22;4934112;29;20158;-50
2022/07/28 05:36:04;;;;;;;6.22;4.05;;;21.40;53.00;;;18.03;61.58;95320.69;4933025;29;20390;-50
2022/07/28 05:38:31;;;;;;;8.27;4.45;;;21.60;52.50;;;18.33;60.98;95314.63;4934094;29;20426;-53
2022/07/28 05:41:00;;;;;;;6.00;3.17;;;21.80;52.20;;;18.49;60.23;95315.72;4932890;29;20027;-50
2022/07/28 05:43:26;;;;;;;6.35;3.65;;;22.10;51.80;;;18.58;59.96;95321.84;4780476;29;22551;-54
2022/07/28 05:45:59;;;;;;;8.60;3.40;;;22.40;51.40;;;18.84;59.25;95310.25;4929881;29;20114;-48
2022/07/28 05:48:28;;;;;;;;;;;22.50;51.00;;;18.98;58.48;95310.81;4934219;29;20031;-53
2022/07/28 05:50:57;;;;;;;8.05;3.95;;;22.70;51.50;;;19.17;58.09;95311.19;4933920;29;19953;-52
2022/07/28 05:53:26;;;;;;;5.57;3.63;;;22.90;50.30;;;19.43;57.44;95318.38;4917111;29;20390;-46
2022/07/28 05:55:57;;;;;;;6.70;3.80;;;23.20;49.90;;;19.60;57.33;95314.75;4917264;29;20072;-50
2022/07/28 05:58:24;;;;;;;5.90;3.70;;;23.40;49.50;;;19.82;57.02;95316.38;4940491;28;20027;-48
2022/07/28 06:00:50;;;;;;;4.70;3.53;;;23.60;49.10;;;20.05;56.22;95320.31;4932599;29;20038;-53
2022/07/28 06:03:16;;;;;;;5.40;3.83;;;23.80;48.80;;;20.19;55.73;95317.34;4916706;29;20038;-50
2022/07/28 06:05:42;;;;;;;5.53;3.40;;;24.00;48.40;;;20.44;55.36;95322.84;4916568;29;20478;-51
2022/07/28 06:08:08;;;;;;;6.82;3.75;;;24.20;48.10;;;20.66;54.40;95327.09;4916283;29;20446;-54
2022/07/28 06:13:21;;;;;;;4.97;4.03;;;24.70;47.40;;;21.12;52.88;95322.41;4933867;29;20065;-49
2022/07/28 06:15:48;;;;;;;5.50;3.58;;;24.90;46.80;;;21.26;52.89;95323.66;4916373;29;20045;-49
2022/07/28 06:18:16;;;;;;;5.60;4.00;;;25.10;47.00;;;21.52;52.44;95329.91;4933278;29;20030;-53
2022/07/28 06:20:46;;;;;;;5.75;3.50;;;25.30;46.10;;;21.66;51.91;95328.41;4932450;29;20028;-51
2022/07/28 06:23:14;;;;;;;5.00;3.55;;;25.60;45.80;;;21.83;51.83;95332.78;4916482;29;20476;-50
2022/07/28 06:25:40;;;;;;;7.38;4.10;;;25.80;45.50;;;22.03;51.82;95322.91;4916611;29;20520;-50
2022/07/28 06:28:06;;;;;;;9.30;4.32;;;26.00;45.20;;;22.29;50.83;95325.22;4915814;29;20027;-50
2022/07/28 06:30:35;;;;;;;6.97;3.88;;;26.30;45.60;;;22.20;51.00;95321.06;4932642;29;20022;-48
2022/07/28 06:33:04;;;;;;;8.82;4.40;;;26.40;44.40;;;22.20;51.19;95319.16;4933393;29;20031;-46
2022/07/28 06:35:33;;;;;;;7.18;4.80;;;26.60;44.10;;;22.20;51.34;95321.84;4931981;29;20037;-53
2022/07/28 06:38:02;;;;;;;8.10;4.40;;;26.80;43.70;;;22.35;51.21;95321.13;4916041;29;20064;-51
2022/07/28 06:40:30;;;;;;;5.43;4.50;;;26.90;43.50;;;22.54;51.17;95323.19;4933176;29;20023;-49
2022/07/28 06:42:56;;;;;;;5.25;4.40;;;27.10;43.30;;;22.85;50.69;95327.09;4933050;29;20046;-53
2022/07/28 06:45:22;;;;;;;9.70;4.70;;;27.30;43.10;;;23.09;49.40;95323.44;4916023;29;20027;-51
2022/07/28 06:47:52;;;;;;;4.93;4.43;;;27.50;42.80;;;23.28;49.16;95326.25;4932485;29;20034;-52
2022/07/28 06:50:21;;;;;;;6.43;4.82;;;27.70;42.40;;;23.55;48.87;95321.03;4924247;29;20026;-52
2022/07/28 06:52:47;;;;;;;6.25;4.22;;;27.90;42.10;;;23.71;48.41;95327.22;4933250;29;20421;-49
2022/07/28 06:55:14;;;;;;;5.53;4.50;;;28.20;41.90;;;24.04;47.92;95319.75;4914689;29;20051;-48
2022/07/28 06:57:43;;;;;;;8.30;4.60;;;28.40;41.60;;;23.80;47.38;95315.38;4932885;29;20030;-47
2022/07/28 07:00:12;;;;;;;7.80;4.88;;;28.60;41.10;;;23.85;47.13;95323.25;4931312;29;20029;-48
2022/07/28 07:02:42;;;;;;;7.32;4.32;;;28.80;40.70;;;24.06;47.36;95328.34;4931190;29;20122;-52
2022/07/28 07:05:11;;;;;;;11.05;5.10;;;29.00;40.30;;;24.19;46.83;95322.44;4900058;29;20027;-53
2022/07/28 07:07:40;;;;;;;8.15;4.38;;;29.20;40.00;;;24.48;46.80;95317.56;4931484;29;20071;-52
2022/07/28 07:10:07;;;;;;;8.05;4.97;;;29.40;39.80;;;24.46;47.37;95320.63;4915420;29;20081;-53
2022/07/28 07:12:35;;;;;;;6.82;4.82;;;29.60;39.50;;;24.57;46.00;95323.59;4900329;29;20031;-49
2022/07/28 07:15:04;;;;;;;8.25;5.07;;;29.70;39.10;;;24.86;45.80;95329.53;4915923;29;20497;-53
2022/07/28 07:17:33;;;;;;;5.97;4.55;;;29.90;38.80;;;25.13;44.55;95322.22;4915747;29;20031;-52
2022/07/28 07:19:59;;;;;;;5.38;4.78;;;30.10;38.50;;;25.40;44.59;95317.63;4931611;29;20022;-52
2022/07/28 07:22:42;;;;;;;5.72;4.55;;;30.40;38.30;;;25.34;44.02;95308.94;4915662;29;20038;-48
2022/07/28 07:25:15;;;;;;;4.80;4.40;;;30.50;37.80;;;25.08;44.89;95322.53;4900056;29;20027;-49
2022/07/28 07:27:44;;;;;;;5.40;4.78;;;30.70;37.40;;;25.18;44.62;95316.50;4932742;29;20169;-50
2022/07/28 07:30:13;;;;;;;7.47;4.85;;;30.80;37.10;;;25.32;44.21;95313.19;4931199;29;20466;-53
2022/07/28 07:32:45;;;;;;;8.40;5.00;;;31.00;36.80;;;25.56;44.04;95307.34;4915709;29;20139;-53
2022/07/28 07:35:11;;;;;;;6.47;4.53;;;31.10;36.60;;;25.58;43.55;95310.50;4931500;29;20042;-52
2022/07/28 07:37:37;;;;;;;7.63;4.82;;;31.30;36.50;;;25.57;43.88;95311.66;4899981;29;20035;-51
2022/07/28 07:40:06;;;;;;;7.13;5.93;;;31.30;36.20;;;25.65;43.59;95309.81;4931277;29;20035;-52
2022/07/28 07:42:33;;;;;;;7.63;4.80;;;31.50;35.80;;;25.94;42.80;95308.28;4932810;29;20117;-54
2022/07/28 07:44:59;;;;;;;6.38;4.75;;;31.70;35.60;;;26.19;42.42;95314.03;4915302;29;20038;-51
2022/07/28 07:47:25;;;;;;;5.40;4.90;;;31.80;35.40;;;26.34;42.05;95312.28;4915384;29;20390;-52
2022/07/28 07:49:51;;;;;;;5.38;4.78;;;31.90;35.20;;;26.52;42.47;95307.06;4931146;29;20505;-51
2022/07/28 07:52:24;;;;;;;8.07;4.95;;;32.10;35.00;;;26.71;41.96;95309.59;4932377;29;20031;-49
2022/07/28 07:54:50;;;;;;;6.32;4.32;;;32.40;34.80;;;26.72;41.59;95307.66;4915139;29;20074;-49
2022/07/28 07:57:16;;;;;;;5.30;4.80;;;32.60;34.40;;;26.66;41.14;95300.94;4932243;29;20102;-52
2022/07/28 07:59:51;;;;;;;8.25;4.82;;;32.80;34.00;;;26.89;40.99;95304.31;4931735;29;20080;-48
2022/07/28 08:02:26;;;;;;;5.80;5.20;;;32.90;33.70;;;27.05;40.84;95303.28;4931180;29;20035;-49
2022/07/28 08:05:05;;;;;;;5.20;4.70;;;33.10;33.50;;;27.17;41.32;95300.25;4931032;29;20069;-50
2022/07/28 08:07:35;;;;;;;6.15;4.88;;;33.20;33.30;;;27.38;40.53;95302.38;4932934;29;20126;-51
2022/07/28 08:10:13;;;;;;;9.48;4.78;;;33.30;33.10;;;27.62;39.66;95293.56;4915050;29;20355;-49
2022/07/28 08:12:39;;;;;;;5.10;4.65;;;33.50;32.90;;;27.83;40.07;95295.69;4916557;29;20486;-50
2022/07/28 08:15:06;;;;;;;7.70;5.45;;;33.70;32.80;;;27.77;39.39;95299.94;4933164;29;20077;-49
2022/07/28 08:17:32;;;;;;;5.70;4.70;;;33.90;32.40;;;27.87;39.73;95293.75;4936094;29;20158;-48
2022/07/28 08:19:58;;;;;;;5.40;4.65;;;34.00;32.20;;;28.17;39.38;95297.41;4935298;29;20026;-53
2022/07/28 08:22:45;;;;;;;8.00;5.22;;;34.20;32.00;;;28.51;38.05;95298.72;4935123;29;20581;-50
2022/07/28 08:25:11;;;;;;;8.98;5.55;;;34.40;31.80;;;28.20;38.63;95308.34;4935349;29;20082;-50
2022/07/28 08:27:42;;;;;;;7.10;5.57;;;34.50;31.50;;;28.48;38.06;95307.72;4934959;29;20027;-49
2022/07/28 08:30:15;;;;;;;8.40;5.53;;;34.60;31.10;;;28.64;38.27;95309.31;4930025;29;20038;-49
2022/07/28 08:32:47;;;;;;;20.88;6.90;;;34.80;31.10;;;28.86;37.76;95308.19;4924508;29;20033;-51
2022/07/28 08:35:13;;;;;;;8.50;5.28;;;34.90;30.90;;;29.00;37.12;95302.72;4906001;29;20023;-49
2022/07/28 08:37:45;;;;;;;8.50;5.63;;;35.00;30.60;;;29.01;37.08;95311.75;4933819;29;20046;-49
2022/07/28 08:40:13;;;;;;;7.97;5.75;;;35.10;30.30;;;29.38;36.30;95307.88;4933635;29;20038;-47
2022/07/28 08:43:34;;;;;;;8.25;5.43;;;35.30;30.20;;;29.78;36.81;95314.91;4922324;29;20580;-51
2022/07/28 08:46:05;;;;;;;7.03;5.25;;;35.50;30.20;;;29.67;35.84;95305.91;4923023;29;20034;-48
2022/07/28 08:48:36;;;;;;;5.45;4.95;;;35.80;29.90;;;29.81;36.07;95303.13;4913309;29;20928;-50
2022/07/28 08:51:10;;;;;;;5.28;4.70;;;35.90;29.70;;;30.02;36.38;95307.78;4923759;29;20027;-49
2022/07/28 08:53:39;;;;;;;8.63;5.32;;;36.20;29.60;;;30.11;35.62;95301.88;4930025;29;20030;-50
2022/07/28 08:56:11;;;;;;;9.07;5.63;;;36.40;29.50;;;30.08;36.27;95300.69;4933492;29;20070;-48
2022/07/28 08:58:38;;;;;;;6.57;5.15;;;36.50;29.20;;;29.79;35.92;95299.22;4931266;29;20037;-55
2022/07/28 09:01:07;;;;;;;6.63;5.30;;;36.60;29.10;;;29.79;36.11;95304.72;4927455;29;20130;-49
2022/07/28 09:03:38;;;;;;;7.78;5.88;;;36.60;28.90;;;30.15;36.11;95297.94;4927750;29;20020;-51
2022/07/28 09:06:04;;;;;;;5.57;4.87;;;36.70;28.90;;;30.44;34.86;95297.84;4929333;29;20027;-53
2022/07/28 09:08:34;;;;;;;11.85;4.90;;;36.80;28.80;;;30.63;35.18;95302.06;4917905;29;20377;-55
2022/07/28 09:11:07;;;;;;;6.22;5.35;;;36.90;28.70;;;30.14;35.71;95301.84;4931170;29;20023;-50
2022/07/28 09:13:36;;;;;;;5.55;5.05;;;37.10;28.60;;;30.32;35.36;95290.81;4933557;29;20039;-50
2022/07/28 09:16:03;;;;;;;6.70;5.13;;;37.20;28.50;;;30.75;35.25;95301.59;4925833;29;20027;-47
2022/07/28 09:18:35;;;;;;;7.57;5.15;;;37.20;28.40;;;31.18;34.27;95292.28;4912051;29;20105;-51
2022/07/28 09:21:01;;;;;;;5.97;5.40;;;37.40;28.40;;;31.22;33.99;95291.09;4917743;29;20051;-50
2022/07/28 09:23:47;;;;;;;7.70;6.03;;;37.60;28.20;;;31.28;33.71;95294.97;4923151;29;20077;-50
2022/07/28 09:26:15;;;;;;;7.43;5.07;;;37.70;28.00;;;31.17;33.49;95293.47;4933948;29;20031;-48
2022/07/28 09:29:02;;;;;;;6.25;5.70;;;37.90;27.80;;;30.72;35.23;95294.16;4931527;29;20118;-54
2022/07/28 09:31:29;;;;;;;6.97;4.97;;;37.90;28.10;;;30.73;35.20;95289.44;4916884;29;20031;-50
2022/07/28 09:34:03;;;;;;;5.97;5.38;;;37.90;27.60;;;31.08;33.66;95291.19;4920109;29;20023;-53
2022/07/28 09:36:40;;;;;;;8.05;5.40;;;37.90;27.40;;;31.09;34.54;95279.03;4933020;29;20151;-50
2022/07/28 09:39:07;;;;;;;5.30;4.80;;;38.10;27.50;;;31.58;34.00;95282.53;4917561;29;20015;-54
2022/07/28 09:41:54;;;;;;;5.63;5.13;;;38.20;27.50;;;31.53;33.83;95289.28;4917220;29;20490;-51
2022/07/28 09:44:26;;;;;;;8.30;4.90;;;38.40;27.50;;;31.97;33.35;95281.41;4931333;29;20069;-51
2022/07/28 09:46:54;;;;;;;4.97;4.53;;;38.40;27.40;;;32.02;32.61;95284.44;4928185;29;21448;-52
2022/07/28 09:49:20;;;;;;;6.05;5.00;;;38.70;27.20;;;31.92;32.32;95285.38;4912929;29;20114;-51
2022/07/28 09:52:02;;;;;;;5.85;5.25;;;38.90;26.90;;;32.00;32.23;95286.84;4931361;29;20038;-52
2022/07/28 09:54:28;;;;;;;;;;;39.00;26.60;;;32.12;31.84;95268.22;4926107;29;20011;-52
2022/07/28 09:57:10;;;;;;;4.80;4.40;;;39.00;26.80;;;32.13;32.31;95278.84;4925914;29;19918;-46
2022/07/28 09:59:43;;;;;;;6.72;5.05;;;39.00;26.60;;;32.13;32.04;95278.84;4930927;29;20545;-45
2022/07/28 10:02:23;;;;;;;6.07;5.25;;;38.90;26.50;;;31.88;32.26;95281.84;4930869;29;20491;-45
2022/07/28 10:04:54;;;;;;;5.70;4.90;;;38.90;26.50;;;31.59;32.95;95281.38;4931220;29;20041;-45
2022/07/28 10:07:38;;;;;;;11.68;5.30;;;39.00;26.30;;;31.84;31.86;95283.88;4904830;29;20046;-46
2022/07/28 10:10:07;;;;;;;6.95;5.20;;;38.90;26.20;;;31.79;32.10;95292.56;4928337;29;20343;-49
2022/07/28 10:12:37;;;;;;;6.32;4.97;;;38.90;26.10;;;32.01;31.98;95282.13;4931520;29;20394;-47
2022/07/28 10:18:07;;;;;;;6.68;5.32;;;38.80;26.10;;;31.54;32.04;95276.28;4901523;29;20462;-47
2022/07/28 10:20:35;;;;;;;7.55;5.22;;;38.50;26.10;;;31.63;32.70;95273.06;4912834;29;20022;-50
2022/07/28 10:23:06;;;;;;;7.78;5.13;;;38.40;26.30;;;31.62;32.77;95268.72;4927868;29;20041;-52
2022/07/28 10:25:37;;;;;;;6.85;5.28;;;38.30;26.40;;;31.78;33.12;95280.00;4919629;29;20027;-48
2022/07/28 10:28:05;;;;;;;7.45;5.50;;;38.40;26.50;;;31.86;33.80;95275.97;4910453;29;20074;-53
2022/07/28 10:30:39;;;;;;;6.60;5.40;;;38.60;26.60;;;31.58;33.26;95261.28;4907943;29;20050;-47
2022/07/28 10:33:15;;;;;;;6.93;5.32;;;38.70;26.90;;;31.97;32.57;95267.63;4933086;29;20042;-45
2022/07/28 10:35:47;;;;;;;7.63;5.60;;;38.90;26.30;;;32.16;31.89;95264.25;4915937;29;20050;-45
2022/07/28 10:38:24;;;;;;;5.60;4.95;;;39.20;25.90;;;32.60;31.74;95258.97;4931379;29;20023;-45
2022/07/28 10:41:00;;;;;;;7.07;5.50;;;39.50;25.90;;;32.52;31.18;95263.81;4932076;29;20031;-49
2022/07/28 10:43:36;;;;;;;8.35;5.45;;;39.70;26.10;;;32.71;30.48;95259.59;4916439;29;20047;-48
2022/07/28 10:46:06;;;;;;;6.30;5.80;;;39.90;25.30;;;33.01;30.42;95256.03;4915114;29;20508;-51
2022/07/28 10:48:32;;;;;;;6.78;5.10;;;40.10;25.20;;;32.44;30.91;95262.34;4931138;29;20086;-47
2022/07/28 10:51:00;;;;;;;5.93;4.93;;;40.20;25.00;;;32.62;31.41;95257.34;4932288;29;20027;-47
2022/07/28 10:54:11;;;;;;;7.55;5.18;;;40.00;25.00;;;33.02;30.79;95248.53;4915992;29;20027;-49